Watertown International Airport Watertown US
ICAO: KART
IATA: ART
Category: Medium
Scheduled Services: Yes

Elevation: 325 ft
TransAlt. 18000 ft.

Airport Communications:
WHEELER SACK APP/DEP:128.25
ASOS:133.525
BURLINGTON RDO:122.2
CTAF/UNICOM:123

KART Zoom In..

If you have problems with the map follow the link
https://www.worldairports.se/pages/airport.php?
ICAO=KART

Runways:

(A) RW 07 length 4999 ft width 150 ft
ILS 111.10 / hdg 65

(B) RW 10 length 5999 ft width 150 ft
---- / hdg 105

(C) RW 25 length 4999 ft width 150 ft
---- / hdg 245

(D) RW 28 length 5999 ft width 150 ft
---- / hdg 285

Location; KART
Day. 21 / Time. 03.56 Zulu
* Altimeter: 30.42
* Temperature: -19° c. 2.2°f.
* Wind from: 000° Speed 00 kn.
Dewpoint: -21° c.
Visibility: 10 Statute Miles.
Clouds: Clear (automated report).

KART 210356Z AUTO 00000KT 10SM CLR M19/M21 A3042 RMK AO2 SLP313 T11891211 $


Wind - Calm.

 
 
jpsmedia worldairports.se 2020   terms of use